createdAt,value
2018-07-16T00:03:05.190Z,23.30
2018-07-16T00:07:07.339Z,23.30
2018-07-16T00:11:09.487Z,23.20
2018-07-16T00:15:11.662Z,23.30
2018-07-16T00:19:13.864Z,23.30
2018-07-16T00:23:15.998Z,23.30
2018-07-16T00:27:18.131Z,23.40
2018-07-16T00:31:20.326Z,22.40
2018-07-16T00:35:22.520Z,22.10
2018-07-16T00:39:24.692Z,22.80
2018-07-16T00:43:26.883Z,23.00
2018-07-16T00:47:29.611Z,23.40
2018-07-16T00:51:31.821Z,23.60
2018-07-16T00:55:33.982Z,23.60
2018-07-16T00:59:36.135Z,23.20
2018-07-16T01:03:38.867Z,22.50
2018-07-16T01:07:41.033Z,22.50
2018-07-16T01:11:43.178Z,22.40
2018-07-16T01:15:45.354Z,23.30
2018-07-16T01:19:47.506Z,23.60
2018-07-16T01:23:49.750Z,23.60
2018-07-16T01:27:51.991Z,23.60
2018-07-16T01:31:54.136Z,23.80
2018-07-16T01:35:56.299Z,23.70
2018-07-16T01:39:58.940Z,23.60
2018-07-16T01:44:01.113Z,20.70
2018-07-16T01:48:03.269Z,21.60
2018-07-16T01:52:05.600Z,22.90
2018-07-16T01:56:07.755Z,23.40
2018-07-16T02:00:09.963Z,23.50
2018-07-16T02:04:12.468Z,23.60
2018-07-16T02:08:14.938Z,23.70
2018-07-16T02:12:17.111Z,23.70
2018-07-16T02:16:19.291Z,23.70
2018-07-16T02:20:21.475Z,23.70
2018-07-16T02:24:23.687Z,23.70
2018-07-16T02:28:25.839Z,23.70
2018-07-16T02:32:28.009Z,23.50
2018-07-16T02:36:30.168Z,23.70
2018-07-16T02:40:32.465Z,23.80
2018-07-16T02:44:34.614Z,23.60
2018-07-16T02:48:36.960Z,22.60
2018-07-16T02:52:39.372Z,23.20
2018-07-16T02:56:41.534Z,23.30
2018-07-16T03:00:43.720Z,23.40
2018-07-16T03:04:45.888Z,23.20
2018-07-16T03:08:48.239Z,23.00
2018-07-16T03:12:50.475Z,22.10
2018-07-16T03:16:52.599Z,22.20
2018-07-16T03:20:54.862Z,21.50
2018-07-16T03:24:57.079Z,21.20
2018-07-16T03:28:59.257Z,20.90
2018-07-16T03:33:01.424Z,20.80
2018-07-16T03:37:03.754Z,21.60
2018-07-16T03:41:06.150Z,22.20
2018-07-16T03:45:08.344Z,22.50
2018-07-16T03:49:10.550Z,21.80
2018-07-16T03:53:13.136Z,21.00
2018-07-16T03:57:15.337Z,22.00
2018-07-16T04:01:17.508Z,22.90
2018-07-16T04:05:19.707Z,23.20
2018-07-16T04:09:21.911Z,23.40
2018-07-16T04:13:24.207Z,23.50
2018-07-16T04:17:26.476Z,23.50
2018-07-16T04:21:28.867Z,23.40
2018-07-16T04:25:31.044Z,23.60
2018-07-16T04:29:33.255Z,23.50
2018-07-16T04:33:35.392Z,23.50
2018-07-16T04:37:37.551Z,23.60
2018-07-16T04:41:39.721Z,23.50
2018-07-16T04:45:41.885Z,23.30
2018-07-16T04:49:44.142Z,22.70
2018-07-16T04:53:46.328Z,22.70
2018-07-16T04:57:48.525Z,22.10
2018-07-16T05:01:51.066Z,22.40
2018-07-16T05:05:53.202Z,23.00
2018-07-16T05:09:55.346Z,23.90
2018-07-16T05:13:57.559Z,23.20
2018-07-16T05:17:59.764Z,24.10
2018-07-16T05:22:01.900Z,24.10
2018-07-16T05:26:04.066Z,24.90
2018-07-16T05:30:06.251Z,25.10
2018-07-16T05:34:08.395Z,25.50
2018-07-16T05:38:10.655Z,25.40
2018-07-16T05:42:12.826Z,25.60
2018-07-16T05:46:14.942Z,25.80
2018-07-16T05:50:17.123Z,25.50
2018-07-16T05:54:19.271Z,25.70
2018-07-16T05:58:21.435Z,25.90
2018-07-16T06:02:23.603Z,25.80
2018-07-16T06:06:25.792Z,25.80
2018-07-16T06:10:27.972Z,26.20
2018-07-16T06:14:30.169Z,26.10
2018-07-16T06:18:33.168Z,26.00
2018-07-16T06:22:35.369Z,26.20
2018-07-16T06:26:37.508Z,26.30
2018-07-16T06:30:39.716Z,26.60
2018-07-16T06:34:42.163Z,27.10
2018-07-16T06:38:44.362Z,27.30
2018-07-16T06:42:46.560Z,27.40
2018-07-16T06:46:48.776Z,27.60
2018-07-16T06:50:51.393Z,28.00
2018-07-16T06:54:53.604Z,28.30
2018-07-16T06:58:55.801Z,28.50
2018-07-16T07:02:58.189Z,28.80
2018-07-16T07:07:00.798Z,28.60
2018-07-16T07:11:03.232Z,28.50
2018-07-16T07:15:05.579Z,27.30
2018-07-16T07:19:07.864Z,28.00
2018-07-16T07:23:10.349Z,25.60
2018-07-16T07:27:12.537Z,26.50
2018-07-16T07:31:14.734Z,27.30
2018-07-16T07:35:16.936Z,28.90
2018-07-16T07:39:19.102Z,27.20
2018-07-16T07:43:21.267Z,28.40
2018-07-16T07:47:23.671Z,30.20
2018-07-16T07:51:26.094Z,30.80
2018-07-16T07:55:28.384Z,30.80
2018-07-16T07:59:30.630Z,29.20
2018-07-16T08:03:32.959Z,31.00
2018-07-16T08:07:35.197Z,31.10
2018-07-16T08:11:37.443Z,31.10
2018-07-16T08:15:39.645Z,30.10
2018-07-16T08:19:41.851Z,29.00
2018-07-16T08:23:44.038Z,28.10
2018-07-16T08:27:46.295Z,28.10
2018-07-16T08:31:48.533Z,27.90
2018-07-16T08:35:51.025Z,28.50
2018-07-16T08:39:53.364Z,29.80
2018-07-16T08:43:55.726Z,30.60
2018-07-16T08:47:57.944Z,31.40
2018-07-16T08:52:01.185Z,32.40
2018-07-16T08:56:03.399Z,31.90
2018-07-16T09:00:05.808Z,32.30
2018-07-16T09:04:08.117Z,32.70
2018-07-16T09:08:10.364Z,32.00
2018-07-16T09:12:12.562Z,33.40
2018-07-16T09:16:14.740Z,33.50
2018-07-16T09:20:16.981Z,34.10
2018-07-16T09:24:19.129Z,33.70
2018-07-16T09:28:21.309Z,33.90
2018-07-16T09:32:23.477Z,33.60
2018-07-16T09:36:25.703Z,33.10
2018-07-16T09:40:27.893Z,31.80
2018-07-16T09:44:30.271Z,32.00
2018-07-16T09:48:32.395Z,29.20
2018-07-16T09:52:34.550Z,30.90
2018-07-16T09:56:36.755Z,32.30
2018-07-16T10:01:47.283Z,31.10
2018-07-16T10:05:49.572Z,30.60
2018-07-16T10:09:51.828Z,32.20
2018-07-16T10:13:54.225Z,32.40
2018-07-16T10:17:56.460Z,32.80
2018-07-16T10:21:59.123Z,32.20
2018-07-16T10:26:01.293Z,32.60
2018-07-16T10:30:03.612Z,33.00
2018-07-16T10:34:05.940Z,32.30
2018-07-16T10:38:08.202Z,31.90
2018-07-16T10:42:10.566Z,33.10
2018-07-16T10:46:12.747Z,33.10
2018-07-16T10:50:14.953Z,32.60
2018-07-16T10:54:17.185Z,33.50
2018-07-16T10:58:19.335Z,33.60
2018-07-16T11:02:21.507Z,34.10
2018-07-16T11:06:24.303Z,31.00
2018-07-16T11:10:26.673Z,32.10
2018-07-16T11:14:28.907Z,32.80
2018-07-16T11:18:31.126Z,33.60
2018-07-16T11:22:33.270Z,34.10
2018-07-16T11:26:35.446Z,34.90
2018-07-16T11:30:37.623Z,34.60
2018-07-16T11:34:39.852Z,34.40
2018-07-16T11:40:11.644Z,34.30
2018-07-16T11:44:13.891Z,34.20
2018-07-16T11:48:16.088Z,34.80
2018-07-16T11:53:47.791Z,36.00
2018-07-16T11:57:50.045Z,35.50
2018-07-16T12:01:52.256Z,35.60
2018-07-16T12:05:54.689Z,36.10
2018-07-16T12:09:56.982Z,35.60
2018-07-16T12:13:59.146Z,35.80
2018-07-16T12:18:01.292Z,35.70
2018-07-16T12:22:03.510Z,37.40
2018-07-16T12:26:05.724Z,33.80
2018-07-16T12:30:07.984Z,29.70
2018-07-16T12:34:10.308Z,27.40
2018-07-16T12:38:12.492Z,26.20
2018-07-16T12:42:14.839Z,25.60
2018-07-16T12:46:17.224Z,25.10
2018-07-16T12:50:19.434Z,24.90
2018-07-16T12:54:21.626Z,25.40
2018-07-16T12:58:23.873Z,25.10
2018-07-16T13:02:26.847Z,26.30
2018-07-16T13:06:29.007Z,26.60
2018-07-16T13:10:31.168Z,27.70
2018-07-16T13:14:33.379Z,27.90
2018-07-16T13:18:35.642Z,28.40
2018-07-16T13:22:37.788Z,27.80
2018-07-16T13:26:39.999Z,29.20
2018-07-16T13:30:42.191Z,31.00
2018-07-16T13:34:44.389Z,32.20
2018-07-16T13:38:46.579Z,33.30
2018-07-16T13:42:48.755Z,32.60
2018-07-16T13:46:51.149Z,33.30
2018-07-16T13:50:53.219Z,32.50
2018-07-16T13:54:55.403Z,32.10
2018-07-16T13:58:57.750Z,34.80
2018-07-16T14:03:00.468Z,36.20
2018-07-16T14:07:02.792Z,35.20
2018-07-16T14:11:05.022Z,34.10
2018-07-16T14:15:07.396Z,32.50
2018-07-16T14:19:09.672Z,32.20
2018-07-16T14:23:11.826Z,33.90
2018-07-16T14:27:14.094Z,34.30
2018-07-16T14:31:16.501Z,33.10
2018-07-16T14:35:18.652Z,34.40
2018-07-16T14:39:21.223Z,34.40
2018-07-16T14:43:23.390Z,32.70
2018-07-16T14:47:25.718Z,33.00
2018-07-16T14:51:27.811Z,31.70
2018-07-16T14:55:29.962Z,30.80
2018-07-16T14:59:32.290Z,30.20
2018-07-16T15:03:34.476Z,32.40
2018-07-16T15:07:36.632Z,33.40
2018-07-16T15:11:38.827Z,33.60
2018-07-16T15:15:41.012Z,30.30
2018-07-16T15:19:43.176Z,29.50
2018-07-16T15:23:45.355Z,31.90
2018-07-16T15:27:47.532Z,31.70
2018-07-16T15:31:49.788Z,30.60
2018-07-16T15:35:51.957Z,30.50
2018-07-16T15:39:54.216Z,30.00
2018-07-16T15:43:56.358Z,30.10
2018-07-16T15:47:58.593Z,30.60
2018-07-16T15:52:00.755Z,31.80
2018-07-16T15:56:02.927Z,32.30
2018-07-16T16:00:05.165Z,32.40
2018-07-16T16:04:07.366Z,33.80
2018-07-16T16:08:10.191Z,33.20
2018-07-16T16:12:12.400Z,28.90
2018-07-16T16:16:14.552Z,26.90
2018-07-16T16:20:16.816Z,26.00
2018-07-16T16:24:19.091Z,24.80
2018-07-16T16:28:21.387Z,24.80
2018-07-16T16:32:23.560Z,24.50
2018-07-16T16:36:25.824Z,24.60
2018-07-16T16:40:28.123Z,24.80
2018-07-16T16:44:30.303Z,25.20
2018-07-16T16:48:32.490Z,25.60
2018-07-16T16:52:34.879Z,26.10
2018-07-16T16:56:37.179Z,26.00
2018-07-16T17:00:39.363Z,26.20
2018-07-16T17:04:41.558Z,27.10
2018-07-16T17:08:43.745Z,28.50
2018-07-16T17:12:45.976Z,28.30
2018-07-16T17:16:48.132Z,28.30
2018-07-16T17:20:50.368Z,29.00
2018-07-16T17:24:52.585Z,29.80
2018-07-16T17:28:54.803Z,29.90
2018-07-16T17:32:57.168Z,29.30
2018-07-16T17:36:59.348Z,29.00
2018-07-16T17:41:01.655Z,29.10
2018-07-16T17:45:04.315Z,28.90
2018-07-16T17:49:06.576Z,29.10
2018-07-16T17:53:08.801Z,29.50
2018-07-16T17:57:11.011Z,29.70
2018-07-16T18:01:13.378Z,30.00
2018-07-16T18:05:15.600Z,30.10
2018-07-16T18:09:17.815Z,30.00
2018-07-16T18:13:20.069Z,30.30
2018-07-16T18:17:22.185Z,30.20
2018-07-16T18:21:24.356Z,30.30
2018-07-16T18:25:26.539Z,30.10
2018-07-16T18:29:28.692Z,30.00
2018-07-16T18:33:31.135Z,29.80
2018-07-16T18:37:33.469Z,29.80
2018-07-16T18:41:35.662Z,29.60
2018-07-16T18:45:37.855Z,29.70
2018-07-16T18:49:40.074Z,29.60
2018-07-16T18:53:42.307Z,28.60
2018-07-16T18:57:44.759Z,28.80
2018-07-16T19:01:46.965Z,28.50
2018-07-16T19:05:49.149Z,28.60
2018-07-16T19:09:51.712Z,28.70
2018-07-16T19:13:53.973Z,25.50
2018-07-16T19:17:57.107Z,23.80
2018-07-16T19:21:59.480Z,24.60
2018-07-16T19:26:01.715Z,25.60
2018-07-16T19:30:04.859Z,24.20
2018-07-16T19:34:07.102Z,24.10
2018-07-16T19:38:09.295Z,25.60
2018-07-16T19:42:11.580Z,26.00
2018-07-16T19:46:13.769Z,26.00
2018-07-16T19:50:15.961Z,26.60
2018-07-16T19:54:18.150Z,26.50
2018-07-16T19:58:21.323Z,26.60
2018-07-16T20:02:23.519Z,26.60
2018-07-16T20:06:25.813Z,26.20
2018-07-16T20:10:28.032Z,26.00
2018-07-16T20:14:30.279Z,26.00
2018-07-16T20:18:32.598Z,26.00
2018-07-16T20:22:34.816Z,26.10
2018-07-16T20:26:37.063Z,25.50
2018-07-16T20:30:39.288Z,22.40
2018-07-16T20:34:41.519Z,22.90
2018-07-16T20:38:43.716Z,23.60
2018-07-16T20:42:45.899Z,24.30
2018-07-16T20:46:48.103Z,24.40
2018-07-16T20:50:50.275Z,25.00
2018-07-16T20:54:52.552Z,25.00
2018-07-16T20:58:54.751Z,24.70
2018-07-16T21:02:57.026Z,24.70
2018-07-16T21:06:59.271Z,24.70
2018-07-16T21:11:02.005Z,24.70
2018-07-16T21:15:04.285Z,24.70
2018-07-16T21:19:06.573Z,24.10
2018-07-16T21:23:08.755Z,24.30
2018-07-16T21:27:11.008Z,24.40
2018-07-16T21:31:13.676Z,22.50
2018-07-16T21:35:16.388Z,22.80
2018-07-16T21:39:19.461Z,23.60
2018-07-16T21:43:21.700Z,23.70
2018-07-16T21:47:25.892Z,23.60
2018-07-16T21:51:28.151Z,23.40
2018-07-16T21:55:30.368Z,23.60
2018-07-16T21:59:32.585Z,23.80
2018-07-16T22:03:34.861Z,24.00
2018-07-16T22:07:37.101Z,23.90
2018-07-16T22:11:39.354Z,24.00
2018-07-16T22:15:41.631Z,24.10
2018-07-16T22:19:43.827Z,24.10
2018-07-16T22:23:46.147Z,24.00
2018-07-16T22:27:48.381Z,24.20
2018-07-16T22:31:50.779Z,24.20
2018-07-16T22:35:53.020Z,24.10
2018-07-16T22:39:55.499Z,23.90
2018-07-16T22:43:57.690Z,22.90
2018-07-16T22:47:59.919Z,23.50
2018-07-16T22:52:02.136Z,23.60
2018-07-16T22:56:04.413Z,23.50
2018-07-16T23:00:06.652Z,22.60
2018-07-16T23:04:08.865Z,22.90
2018-07-16T23:08:12.302Z,23.00
2018-07-16T23:12:14.539Z,23.10
2018-07-16T23:16:16.892Z,23.20
2018-07-16T23:20:19.235Z,23.00
2018-07-16T23:24:21.390Z,23.00
2018-07-16T23:28:23.580Z,22.80
2018-07-16T23:32:25.842Z,23.00
2018-07-16T23:36:28.411Z,22.80
2018-07-16T23:40:30.580Z,22.90
2018-07-16T23:44:32.732Z,22.70
2018-07-16T23:48:35.072Z,22.70
2018-07-16T23:52:37.301Z,22.60
2018-07-16T23:56:39.465Z,22.60
